Time;durP1;ratioP1;P1;durP2;ratioP2;P2;SDS_P1;SDS_P2;PMS_P1;PMS_P2;Temp;Humidity;BMP_temperature;BMP_pressure;BME280_temperature;BME280_humidity;BME280_pressure;Samples;Min_cycle;Max_cycle;Signal;HPM_P1;HPM_P2
2023/07/18 04:42:41;;;;;;;8.27;0.63;;;18.50;91.40;;;;;;5130873;27;20104;-78
2023/07/18 04:45:07;;;;;;;4.97;0.63;;;18.50;92.40;;;;;;5131058;28;20037;-79
2023/07/18 04:47:33;;;;;;;6.30;0.68;;;18.60;93.30;;;;;;5131263;28;20088;-79
2023/07/18 04:49:59;;;;;;;3.45;0.50;;;18.70;93.90;;;;;;5131417;28;20023;-76
2023/07/18 04:52:24;;;;;;;7.35;0.70;;;18.80;94.10;;;;;;5131254;28;20110;-76
2023/07/18 04:54:50;;;;;;;2.65;0.50;;;19.00;94.10;;;;;;5112629;28;20127;-76
2023/07/18 04:57:17;;;;;;;3.67;0.40;;;19.10;94.00;;;;;;5130940;28;20032;-76
2023/07/18 04:59:48;;;;;;;7.57;0.80;;;19.20;93.80;;;;;;5131205;28;20032;-76
2023/07/18 05:02:14;;;;;;;5.03;1.20;;;19.30;93.60;;;;;;5130708;28;20035;-73
2023/07/18 05:04:39;;;;;;;6.10;1.90;;;19.40;93.10;;;;;;5112372;28;20031;-80
2023/07/18 05:07:05;;;;;;;5.70;2.10;;;19.40;92.70;;;;;;5131301;28;20459;-79
2023/07/18 05:09:31;;;;;;;6.18;1.52;;;19.30;92.00;;;;;;5131315;28;20395;-78
2023/07/18 05:11:56;;;;;;;4.45;1.27;;;19.30;91.70;;;;;;5112773;28;20381;-79
2023/07/18 05:14:22;;;;;;;4.90;1.40;;;19.20;91.40;;;;;;5130654;28;20027;-77
2023/07/18 05:16:48;;;;;;;2.28;0.85;;;19.20;91.70;;;;;;5130373;28;20028;-79
2023/07/18 05:19:13;;;;;;;2.80;0.77;;;19.30;91.80;;;;;;5095523;28;20023;-77
2023/07/18 05:21:39;;;;;;;6.15;0.90;;;19.30;92.00;;;;;;5112020;28;20035;-79
2023/07/18 05:24:05;;;;;;;6.85;2.50;;;19.40;92.00;;;;;;5095651;28;20073;-78
2023/07/18 05:26:31;;;;;;;2.80;1.13;;;19.40;91.80;;;;;;5112261;28;20092;-79
2023/07/18 05:28:56;;;;;;;3.33;0.93;;;19.40;91.50;;;;;;5130641;28;20031;-79
2023/07/18 05:31:22;;;;;;;4.55;0.88;;;19.50;91.60;;;;;;5130611;28;20177;-78
2023/07/18 05:33:48;;;;;;;3.45;1.00;;;19.50;91.70;;;;;;5094861;28;20028;-79
2023/07/18 05:36:16;;;;;;;2.95;0.90;;;19.60;91.70;;;;;;5130042;28;20027;-80
2023/07/18 05:38:42;;;;;;;3.03;0.57;;;19.60;91.60;;;;;;5095302;28;20035;-78
2023/07/18 05:41:08;;;;;;;2.05;0.50;;;19.70;91.60;;;;;;5111627;28;20403;-79
2023/07/18 05:43:34;;;;;;;2.78;0.70;;;19.70;91.50;;;;;;5130243;28;20031;-79
2023/07/18 05:46:00;;;;;;;4.47;1.30;;;19.80;91.50;;;;;;5111213;28;20043;-78
2023/07/18 05:48:27;;;;;;;6.88;3.30;;;19.80;91.30;;;;;;5130306;28;20024;-80
2023/07/18 05:50:55;;;;;;;5.60;2.22;;;19.80;90.90;;;;;;5130375;28;20037;-79
2023/07/18 05:53:20;;;;;;;6.03;2.30;;;19.90;90.60;;;;;;5102869;28;20100;-79
2023/07/18 05:55:46;;;;;;;7.68;3.08;;;19.80;90.30;;;;;;5098574;28;20069;-79
2023/07/18 05:58:12;;;;;;;6.03;2.55;;;19.80;90.40;;;;;;5116134;28;20039;-78
2023/07/18 06:00:38;;;;;;;7.60;2.20;;;19.80;90.40;;;;;;5116139;28;20035;-78
2023/07/18 06:03:04;;;;;;;4.50;1.50;;;19.80;90.50;;;;;;5116384;28;20032;-78
2023/07/18 06:05:29;;;;;;;9.10;3.65;;;19.90;90.60;;;;;;5097998;28;20081;-79
2023/07/18 06:07:55;;;;;;;5.65;2.40;;;19.90;90.40;;;;;;5115864;28;20032;-79
2023/07/18 06:10:21;;;;;;;4.30;1.33;;;19.90;90.10;;;;;;5097799;28;20031;-79
2023/07/18 06:12:46;;;;;;;5.60;2.45;;;19.90;90.30;;;;;;5115767;28;20472;-79
2023/07/18 06:15:12;;;;;;;8.00;2.13;;;19.90;90.00;;;;;;5115338;28;20046;-78
2023/07/18 06:17:38;;;;;;;4.13;1.40;;;19.90;89.90;;;;;;5097914;28;20133;-78
2023/07/18 06:20:13;;;;;;;3.42;1.13;;;19.90;89.70;;;;;;5115641;28;20059;-78
2023/07/18 06:22:39;;;;;;;4.95;1.70;;;19.80;89.90;;;;;;5115636;28;20076;-79
2023/07/18 06:25:06;;;;;;;5.25;1.92;;;19.90;90.10;;;;;;5080803;28;20071;-79
2023/07/18 06:27:32;;;;;;;8.77;3.42;;;20.00;89.90;;;;;;5116076;28;20525;-78
2023/07/18 06:29:58;;;;;;;8.32;3.42;;;20.00;88.90;;;;;;5115399;28;20080;-78
2023/07/18 06:32:24;;;;;;;5.10;2.28;;;20.00;88.70;;;;;;5115616;28;20114;-80
2023/07/18 06:34:50;;;;;;;6.93;3.08;;;19.90;88.10;;;;;;5115563;28;20540;-78
2023/07/18 06:37:15;;;;;;;8.30;3.00;;;19.90;88.00;;;;;;5116013;28;20028;-79
2023/07/18 06:39:41;;;;;;;7.00;3.35;;;19.90;87.90;;;;;;5115391;28;20110;-79
2023/07/18 06:42:10;;;;;;;5.20;2.70;;;19.80;88.00;;;;;;5115422;28;20051;-79
2023/07/18 06:44:36;;;;;;;11.65;3.70;;;19.80;87.90;;;;;;5115037;28;20104;-79
2023/07/18 06:47:02;;;;;;;6.13;3.13;;;19.70;88.00;;;;;;5114768;28;20497;-78
2023/07/18 06:49:28;;;;;;;8.40;3.30;;;19.80;88.10;;;;;;5115429;28;20032;-78
2023/07/18 06:51:53;;;;;;;6.95;3.03;;;19.70;88.10;;;;;;5096833;28;20406;-79
2023/07/18 06:54:19;;;;;;;7.70;3.28;;;19.70;88.20;;;;;;5096542;28;20383;-79
2023/07/18 06:56:45;;;;;;;6.70;3.08;;;19.70;88.50;;;;;;5114949;28;20036;-79
2023/07/18 06:59:13;;;;;;;7.30;3.03;;;19.80;88.40;;;;;;5096541;28;20413;-79
2023/07/18 07:01:38;;;;;;;8.57;3.47;;;19.70;87.90;;;;;;5114760;28;20063;-79
2023/07/18 07:04:04;;;;;;;8.75;3.70;;;19.70;87.70;;;;;;5113306;28;20030;-78
2023/07/18 07:06:30;;;;;;;7.25;3.20;;;19.80;87.70;;;;;;5114231;28;20115;-79
2023/07/18 07:08:55;;;;;;;7.35;2.60;;;19.80;87.90;;;;;;5114361;28;20139;-78
2023/07/18 07:11:22;;;;;;;6.32;2.17;;;19.80;87.40;;;;;;5114548;28;20110;-78
2023/07/18 07:13:47;;;;;;;8.15;2.72;;;19.80;86.80;;;;;;5096769;28;20126;-78
2023/07/18 07:16:13;;;;;;;9.23;3.60;;;19.80;86.70;;;;;;5114108;28;20409;-78
2023/07/18 07:18:39;;;;;;;9.60;2.60;;;19.80;86.20;;;;;;5113986;28;20078;-77
2023/07/18 07:21:05;;;;;;;7.97;3.20;;;19.80;86.30;;;;;;5096062;28;20475;-77
2023/07/18 07:23:31;;;;;;;7.85;2.65;;;19.80;86.60;;;;;;5114425;28;20418;-78
2023/07/18 07:25:57;;;;;;;8.85;2.65;;;19.80;87.00;;;;;;5114675;28;20037;-78
2023/07/18 07:28:23;;;;;;;4.38;1.85;;;19.80;86.80;;;;;;5114201;28;20448;-78
2023/07/18 07:30:50;;;;;;;7.88;2.70;;;19.90;87.10;;;;;;5114213;28;20038;-78
2023/07/18 07:33:16;;;;;;;8.98;3.00;;;20.00;87.60;;;;;;5114291;28;20024;-79
2023/07/18 07:35:43;;;;;;;10.05;3.10;;;20.00;86.80;;;;;;5113793;28;20396;-78
2023/07/18 07:38:09;;;;;;;5.50;2.58;;;20.10;86.50;;;;;;5113975;28;20118;-78
2023/07/18 07:40:35;;;;;;;6.22;2.58;;;20.20;85.90;;;;;;5113440;28;20056;-79
2023/07/18 07:43:00;;;;;;;7.18;2.53;;;20.20;86.50;;;;;;5114338;28;20118;-79
2023/07/18 07:45:26;;;;;;;5.63;2.20;;;20.20;86.50;;;;;;5113546;28;20081;-78
2023/07/18 07:47:52;;;;;;;6.50;2.90;;;20.30;86.70;;;;;;5113636;28;20036;-78
2023/07/18 07:50:17;;;;;;;12.20;4.65;;;20.40;85.60;;;;;;5114076;28;20031;-78
2023/07/18 07:52:43;;;;;;;4.25;2.50;;;20.40;85.60;;;;;;5113950;28;20379;-78
2023/07/18 07:55:13;;;;;;;5.90;2.30;;;20.50;85.30;;;;;;5114059;28;20321;-78
2023/07/18 07:57:39;;;;;;;8.48;2.42;;;20.60;85.80;;;;;;5113944;28;20458;-79
2023/07/18 08:00:07;;;;;;;4.82;2.45;;;20.70;86.10;;;;;;5113410;28;20400;-78
2023/07/18 08:02:33;;;;;;;5.22;2.42;;;20.80;86.40;;;;;;5113818;28;20122;-78
2023/07/18 08:04:58;;;;;;;7.43;2.38;;;20.90;84.90;;;;;;5113835;28;20065;-78
2023/07/18 08:07:24;;;;;;;5.78;2.53;;;20.90;84.10;;;;;;5113668;28;20398;-78
2023/07/18 08:09:50;;;;;;;3.78;1.85;;;20.90;83.90;;;;;;5095244;28;20482;-79
2023/07/18 08:12:15;;;;;;;6.65;2.10;;;20.90;83.80;;;;;;5113633;28;20519;-78
2023/07/18 08:14:42;;;;;;;7.82;2.28;;;21.00;83.50;;;;;;5113237;28;20093;-78
2023/07/18 08:17:08;;;;;;;7.15;2.67;;;21.10;82.20;;;;;;5095372;28;20161;-78
2023/07/18 08:19:36;;;;;;;8.02;1.88;;;21.20;81.90;;;;;;5095111;28;20118;-75
2023/07/18 08:22:02;;;;;;;6.18;2.22;;;21.10;81.80;;;;;;5095141;28;20063;-78
2023/07/18 08:24:29;;;;;;;3.05;1.13;;;21.20;82.20;;;;;;5113307;28;20035;-80
2023/07/18 08:26:54;;;;;;;6.30;1.88;;;21.30;82.90;;;;;;5078393;28;20024;-81
2023/07/18 08:29:20;;;;;;;5.18;1.40;;;21.40;83.00;;;;;;5078540;28;20126;-78
2023/07/18 08:31:46;;;;;;;6.15;1.95;;;21.50;83.20;;;;;;5113185;28;20043;-79
2023/07/18 08:34:11;;;;;;;3.42;1.30;;;21.60;81.70;;;;;;5113231;28;20028;-77
2023/07/18 08:36:37;;;;;;;5.70;1.60;;;21.70;82.50;;;;;;5113251;28;20035;-78
2023/07/18 08:39:03;;;;;;;8.00;2.03;;;21.70;81.50;;;;;;5113349;28;20032;-78
2023/07/18 08:41:29;;;;;;;4.45;1.23;;;21.90;81.50;;;;;;5094751;28;20056;-78
2023/07/18 08:43:55;;;;;;;5.05;1.60;;;21.90;81.40;;;;;;5113107;28;20364;-78
2023/07/18 08:46:21;;;;;;;4.95;1.20;;;22.00;80.30;;;;;;5112658;28;20032;-78
2023/07/18 08:48:48;;;;;;;4.22;1.38;;;22.00;79.80;;;;;;5113241;28;20036;-78
2023/07/18 08:51:14;;;;;;;3.05;0.80;;;22.10;79.70;;;;;;5113201;28;20077;-79
2023/07/18 08:53:40;;;;;;;3.88;1.13;;;22.10;79.40;;;;;;5113298;28;20023;-79
2023/07/18 08:56:08;;;;;;;2.85;0.60;;;22.20;78.90;;;;;;5094694;28;20474;-79
2023/07/18 08:58:36;;;;;;;5.90;0.60;;;22.30;77.90;;;;;;5113209;28;20478;-80
2023/07/18 09:01:02;;;;;;;3.67;0.70;;;22.30;78.20;;;;;;5113152;28;20032;-79
2023/07/18 09:03:27;;;;;;;4.35;1.10;;;22.40;78.40;;;;;;5113253;28;20031;-79
2023/07/18 09:05:53;;;;;;;4.43;0.60;;;22.50;78.20;;;;;;5094600;28;20391;-80
2023/07/18 09:08:19;;;;;;;4.43;0.40;;;22.60;77.10;;;;;;5095138;28;20023;-80
2023/07/18 09:10:47;;;;;;;4.70;0.43;;;22.60;76.70;;;;;;5113403;28;20031;-80
2023/07/18 09:13:13;;;;;;;3.58;0.50;;;22.70;75.50;;;;;;5113052;28;20028;-81
2023/07/18 09:15:39;;;;;;;1.88;0.40;;;22.70;78.00;;;;;;5112587;28;20096;-81
2023/07/18 09:18:06;;;;;;;3.95;0.60;;;22.60;76.10;;;;;;5113088;28;20024;-79
2023/07/18 09:20:33;;;;;;;2.42;0.40;;;22.60;76.00;;;;;;5102349;28;20032;-80
2023/07/18 09:23:02;;;;;;;1.92;0.20;;;22.60;73.90;;;;;;5094678;28;20103;-80
2023/07/18 09:25:29;;;;;;;2.38;0.40;;;22.60;74.40;;;;;;5102022;28;20039;-78
2023/07/18 09:27:56;;;;;;;3.97;0.60;;;22.70;73.80;;;;;;5112902;27;20034;-78
2023/07/18 09:30:28;;;;;;;2.97;0.40;;;22.80;72.50;;;;;;5116654;28;20167;-78
2023/07/18 09:32:55;;;;;;;3.85;0.70;;;22.70;72.00;;;;;;5116784;28;20055;-79
2023/07/18 09:35:21;;;;;;;2.75;0.50;;;22.70;71.90;;;;;;5116494;28;20035;-78
2023/07/18 09:37:49;;;;;;;2.33;0.30;;;22.80;71.80;;;;;;5081732;28;20028;-79
2023/07/18 09:40:16;;;;;;;10.85;0.77;;;22.80;71.70;;;;;;5116474;28;20034;-79
2023/07/18 09:42:46;;;;;;;3.05;0.93;;;22.90;72.30;;;;;;5116187;28;20143;-80
2023/07/18 09:45:14;;;;;;;3.67;0.50;;;23.00;74.10;;;;;;5098065;28;20061;-80
2023/07/18 09:47:41;;;;;;;1.70;0.30;;;23.20;73.60;;;;;;5116642;28;20028;-80
2023/07/18 09:50:12;;;;;;;2.15;0.30;;;23.20;72.40;;;;;;5098165;28;20391;-80
2023/07/18 09:52:49;;;;;;;3.50;0.60;;;23.30;72.20;;;;;;5116612;28;20031;-80
2023/07/18 09:55:29;;;;;;;2.55;0.40;;;23.30;71.60;;;;;;5116828;28;20024;-80
2023/07/18 09:57:56;;;;;;;2.10;0.45;;;23.30;69.50;;;;;;5098124;28;20110;-78
2023/07/18 10:00:25;;;;;;;4.65;0.68;;;23.30;69.50;;;;;;5116092;28;20023;-80
2023/07/18 10:02:54;;;;;;;2.38;0.50;;;23.30;69.70;;;;;;5116459;28;20036;-79
2023/07/18 10:05:20;;;;;;;3.22;0.60;;;23.30;69.10;;;;;;5097977;28;20609;-80
2023/07/18 10:07:46;;;;;;;4.13;0.30;;;23.40;69.30;;;;;;5098031;28;20031;-79
2023/07/18 10:10:13;;;;;;;4.47;0.32;;;23.40;68.20;;;;;;5115828;28;20118;-79
2023/07/18 10:12:54;;;;;;;2.97;0.38;;;23.50;68.40;;;;;;5115658;28;20034;-80
2023/07/18 10:15:19;;;;;;;2.80;0.30;;;23.60;68.10;;;;;;5115548;28;20047;-80
2023/07/18 10:17:47;;;;;;;3.10;0.32;;;23.60;67.60;;;;;;5116103;28;20433;-80
2023/07/18 10:20:22;;;;;;;2.38;0.57;;;23.60;67.30;;;;;;5115971;28;20065;-79
2023/07/18 10:22:57;;;;;;;2.88;0.30;;;23.70;67.10;;;;;;5097478;28;20063;-79
2023/07/18 10:25:25;;;;;;;4.75;0.32;;;23.80;67.30;;;;;;5116081;28;20040;-80
2023/07/18 10:27:51;;;;;;;2.92;0.40;;;23.80;65.90;;;;;;5115765;28;20122;-80
2023/07/18 10:30:21;;;;;;;2.65;0.30;;;23.80;66.10;;;;;;5097637;28;20024;-80
2023/07/18 10:32:56;;;;;;;3.75;0.40;;;23.90;66.20;;;;;;5097184;28;20027;-79
2023/07/18 10:35:27;;;;;;;1.90;0.25;;;23.90;65.90;;;;;;5115391;28;20042;-80
2023/07/18 10:38:02;;;;;;;2.08;0.22;;;24.00;66.30;;;;;;5115639;28;20031;-79
2023/07/18 10:40:43;;;;;;;2.03;0.43;;;24.10;66.00;;;;;;5115440;28;20019;-77
2023/07/18 10:43:10;;;;;;;2.10;0.28;;;24.10;64.90;;;;;;5115591;28;20062;-79
2023/07/18 10:45:40;;;;;;;1.40;0.20;;;24.20;64.70;;;;;;5096644;28;20080;-80
2023/07/18 10:48:14;;;;;;;3.47;0.20;;;24.20;63.20;;;;;;5097042;28;20047;-80
2023/07/18 10:50:41;;;;;;;1.33;0.20;;;24.20;62.40;;;;;;5096455;28;20020;-78
2023/07/18 10:53:21;;;;;;;2.17;0.20;;;24.10;62.80;;;;;;5094885;28;20050;-79
2023/07/18 10:55:47;;;;;;;3.95;0.50;;;24.10;63.00;;;;;;5094736;28;20024;-79
2023/07/18 10:58:18;;;;;;;2.15;0.30;;;24.10;62.70;;;;;;5094699;28;20039;-78
2023/07/18 11:00:44;;;;;;;3.90;0.35;;;24.10;64.10;;;;;;5094564;28;20077;-79
2023/07/18 11:03:27;;;;;;;2.22;0.28;;;24.20;63.80;;;;;;5094721;28;20161;-79
2023/07/18 11:05:53;;;;;;;2.22;0.30;;;24.30;63.70;;;;;;5094455;28;20284;-79
2023/07/18 11:08:32;;;;;;;2.03;0.35;;;24.40;63.40;;;;;;5094558;28;20043;-79
2023/07/18 11:11:05;;;;;;;1.02;0.30;;;24.50;64.10;;;;;;5076399;28;20076;-79
2023/07/18 11:13:33;;;;;;;1.70;0.30;;;24.60;63.10;;;;;;5094074;28;20036;-76
2023/07/18 11:16:05;;;;;;;2.88;0.40;;;24.70;62.20;;;;;;5093979;28;20028;-76
2023/07/18 11:18:34;;;;;;;2.17;0.47;;;24.80;62.40;;;;;;5076857;28;20024;-78
2023/07/18 11:21:04;;;;;;;2.03;0.40;;;24.80;62.40;;;;;;5094311;28;20033;-78
2023/07/18 11:23:30;;;;;;;2.60;0.30;;;24.80;62.50;;;;;;5094295;28;20115;-78
2023/07/18 11:25:56;;;;;;;2.70;0.63;;;24.90;62.90;;;;;;5094066;28;20107;-79
2023/07/18 11:28:27;;;;;;;2.20;0.50;;;24.90;63.30;;;;;;5093921;28;20154;-79
2023/07/18 11:30:53;;;;;;;4.18;0.60;;;25.10;64.10;;;;;;5094170;28;20044;-79
2023/07/18 11:33:19;;;;;;;2.38;0.30;;;25.20;63.80;;;;;;5093718;28;20039;-78
2023/07/18 11:35:48;;;;;;;3.05;0.40;;;25.40;62.60;;;;;;5093652;28;20460;-78
2023/07/18 11:38:17;;;;;;;3.08;0.30;;;25.30;61.50;;;;;;5075858;28;20039;-79
2023/07/18 11:40:43;;;;;;;8.13;1.35;;;25.30;61.80;;;;;;5093381;28;20036;-79
2023/07/18 11:43:19;;;;;;;3.67;0.63;;;25.40;62.90;;;;;;5075572;28;20471;-79
2023/07/18 11:45:46;;;;;;;3.53;0.70;;;25.50;62.40;;;;;;5093540;28;20024;-79
2023/07/18 11:48:13;;;;;;;4.68;0.82;;;25.60;62.70;;;;;;5093525;28;20411;-79
2023/07/18 11:50:44;;;;;;;1.83;0.50;;;25.70;62.80;;;;;;5093335;28;20039;-79
2023/07/18 11:53:11;;;;;;;1.13;0.20;;;25.80;61.90;;;;;;5093635;28;20460;-79
2023/07/18 11:55:37;;;;;;;4.57;0.22;;;25.80;61.20;;;;;;5093768;28;20039;-79
2023/07/18 11:58:07;;;;;;;1.95;0.30;;;25.80;62.60;;;;;;5093495;28;20028;-80
2023/07/18 12:00:35;;;;;;;3.38;0.57;;;25.90;61.50;;;;;;5093692;28;20038;-79
2023/07/18 12:03:01;;;;;;;2.15;0.22;;;25.90;61.50;;;;;;5093112;28;20445;-78
2023/07/18 12:05:26;;;;;;;3.17;0.20;;;26.00;60.30;;;;;;5093779;28;20107;-78
2023/07/18 12:07:52;;;;;;;1.23;0.20;;;26.00;59.50;;;;;;5075449;28;20071;-79
2023/07/18 12:10:18;;;;;;;3.22;0.28;;;26.00;58.90;;;;;;5075359;28;20036;-79
2023/07/18 12:12:44;;;;;;;2.45;0.30;;;26.10;58.50;;;;;;5093615;28;20445;-79
2023/07/18 12:15:11;;;;;;;1.30;0.10;;;26.10;58.90;;;;;;5074698;28;20051;-79
2023/07/18 12:17:38;;;;;;;2.50;0.77;;;26.30;60.50;;;;;;5075144;28;20035;-78
2023/07/18 12:20:04;;;;;;;3.13;0.30;;;26.30;59.30;;;;;;5075157;28;20032;-78
2023/07/18 12:22:31;;;;;;;1.52;0.20;;;26.30;58.40;;;;;;5092910;28;20039;-79
2023/07/18 12:24:56;;;;;;;5.03;1.10;;;26.30;60.10;;;;;;5093507;28;20035;-79
2023/07/18 12:27:22;;;;;;;2.90;0.20;;;26.40;59.80;;;;;;5093070;28;20023;-79
2023/07/18 12:29:48;;;;;;;5.35;0.95;;;26.50;58.10;;;;;;5093254;28;20028;-79
2023/07/18 12:32:14;;;;;;;2.88;0.20;;;26.50;58.60;;;;;;5093289;28;20036;-79
2023/07/18 12:34:40;;;;;;;3.13;0.50;;;26.50;58.30;;;;;;5093129;28;20036;-80
2023/07/18 12:37:06;;;;;;;2.83;0.30;;;26.60;58.90;;;;;;5074985;28;20028;-79
2023/07/18 12:39:32;;;;;;;1.40;0.20;;;26.70;58.60;;;;;;5074758;28;20168;-78
2023/07/18 12:41:59;;;;;;;0.70;0.20;;;26.80;58.40;;;;;;5092847;28;20544;-79
2023/07/18 12:44:37;;;;;;;1.60;0.30;;;26.80;57.40;;;;;;5092685;28;20111;-79
2023/07/18 12:47:03;;;;;;;2.35;0.52;;;26.80;56.70;;;;;;5093251;28;20036;-79
2023/07/18 12:49:29;;;;;;;5.60;0.40;;;26.80;58.00;;;;;;5093265;28;20086;-79
2023/07/18 12:51:54;;;;;;;1.40;0.20;;;26.70;57.10;;;;;;5092796;28;20047;-78
2023/07/18 12:54:20;;;;;;;3.58;0.55;;;26.80;57.00;;;;;;5093278;28;20032;-77
2023/07/18 12:56:46;;;;;;;1.58;0.20;;;26.70;58.10;;;;;;5092735;28;20036;-79
2023/07/18 12:59:11;;;;;;;3.47;0.32;;;26.80;58.40;;;;;;5092588;28;20329;-79
2023/07/18 13:01:37;;;;;;;2.15;0.20;;;26.90;57.20;;;;;;5092245;28;20090;-78
2023/07/18 13:04:03;;;;;;;3.80;0.20;;;26.70;56.30;;;;;;5095748;28;20381;-78
2023/07/18 13:06:29;;;;;;;2.53;0.35;;;26.50;55.50;;;;;;5096945;28;20033;-79
2023/07/18 13:08:56;;;;;;;2.20;0.30;;;26.30;58.40;;;;;;5078736;28;20142;-79
2023/07/18 13:11:22;;;;;;;1.23;0.20;;;26.20;57.70;;;;;;5078500;28;20484;-78
2023/07/18 13:13:49;;;;;;;1.42;0.20;;;26.20;58.20;;;;;;5096484;28;20036;-79
2023/07/18 13:16:14;;;;;;;3.58;0.20;;;26.30;58.20;;;;;;5096420;28;20051;-78
2023/07/18 13:18:40;;;;;;;3.50;0.60;;;26.40;57.60;;;;;;5096430;28;20457;-78
2023/07/18 13:21:06;;;;;;;1.25;0.17;;;26.50;55.80;;;;;;5096511;28;20036;-79
2023/07/18 13:23:32;;;;;;;1.63;0.17;;;26.30;56.00;;;;;;5096591;28;20039;-79
2023/07/18 13:25:58;;;;;;;2.72;0.20;;;26.20;56.80;;;;;;5078161;28;20137;-79
2023/07/18 13:28:23;;;;;;;0.65;0.10;;;26.20;56.80;;;;;;5078039;28;20028;-78
2023/07/18 13:30:49;;;;;;;3.80;0.25;;;26.10;57.20;;;;;;5096598;28;20106;-78
2023/07/18 13:33:15;;;;;;;2.00;0.30;;;26.20;55.70;;;;;;5096323;28;20350;-81
2023/07/18 13:35:41;;;;;;;1.23;0.20;;;26.30;56.10;;;;;;5096398;28;20025;-79
2023/07/18 13:38:06;;;;;;;1.60;0.20;;;26.50;56.60;;;;;;5096100;28;20024;-81
2023/07/18 13:40:32;;;;;;;1.48;0.22;;;26.70;56.50;;;;;;5096193;28;20030;-80
2023/07/18 13:42:58;;;;;;;2.08;0.20;;;26.80;55.90;;;;;;5078052;28;20048;-80
2023/07/18 13:45:23;;;;;;;2.45;0.20;;;26.70;54.90;;;;;;5095850;28;20077;-80
2023/07/18 13:47:49;;;;;;;2.88;0.20;;;26.70;55.30;;;;;;5096288;28;20388;-80
2023/07/18 13:50:15;;;;;;;3.05;0.55;;;26.70;55.80;;;;;;5096558;28;20028;-79
2023/07/18 13:52:40;;;;;;;1.27;0.20;;;26.80;57.00;;;;;;5096672;28;20024;-79
2023/07/18 13:55:07;;;;;;;2.13;0.10;;;27.00;56.70;;;;;;5096883;28;20127;-80
2023/07/18 13:57:32;;;;;;;1.65;0.40;;;27.10;56.90;;;;;;5078070;28;20183;-80
2023/07/18 13:59:58;;;;;;;1.48;0.22;;;27.20;56.00;;;;;;5078366;28;20388;-82
2023/07/18 14:02:24;;;;;;;1.40;0.17;;;27.30;56.00;;;;;;5096356;28;20119;-80
2023/07/18 14:04:49;;;;;;;1.20;0.20;;;27.40;54.80;;;;;;5096317;28;20086;-79
2023/07/18 14:07:15;;;;;;;1.40;0.17;;;27.50;55.20;;;;;;5095655;28;20024;-79
2023/07/18 14:09:41;;;;;;;2.25;0.20;;;27.50;54.60;;;;;;5096309;28;20103;-79
2023/07/18 14:12:08;;;;;;;1.38;0.20;;;27.60;53.10;;;;;;5077791;28;20032;-80
2023/07/18 14:14:33;;;;;;;0.73;0.10;;;27.60;53.00;;;;;;5095076;28;20036;-78
2023/07/18 14:16:59;;;;;;;1.17;0.20;;;27.60;54.10;;;;;;5096191;28;20035;-80
2023/07/18 14:19:25;;;;;;;0.82;0.15;;;27.70;53.70;;;;;;5096366;28;20034;-79
2023/07/18 14:21:50;;;;;;;1.88;0.20;;;27.70;52.90;;;;;;5095590;28;20040;-80
2023/07/18 14:24:16;;;;;;;2.47;0.20;;;27.60;53.90;;;;;;5096050;28;20032;-80
2023/07/18 14:26:43;;;;;;;1.50;0.20;;;27.50;54.20;;;;;;5095866;28;20028;-79
2023/07/18 14:29:09;;;;;;;1.35;0.10;;;27.60;53.60;;;;;;5095537;28;20136;-80
2023/07/18 14:31:36;;;;;;;0.68;0.10;;;27.60;52.90;;;;;;5077473;28;20537;-79
2023/07/18 14:34:02;;;;;;;1.95;0.20;;;27.70;52.90;;;;;;5095477;28;20020;-79
2023/07/18 14:36:28;;;;;;;2.08;0.30;;;27.70;53.00;;;;;;5095498;28;20517;-80
2023/07/18 14:38:54;;;;;;;0.93;0.10;;;27.70;52.70;;;;;;5095748;28;20039;-80
2023/07/18 14:41:20;;;;;;;2.50;0.20;;;27.70;52.60;;;;;;5077374;28;20570;-80
2023/07/18 14:43:46;;;;;;;3.13;0.20;;;27.70;52.60;;;;;;5095638;28;20047;-79
2023/07/18 14:46:11;;;;;;;1.40;0.17;;;27.60;53.30;;;;;;5094542;28;20028;-80
2023/07/18 14:48:37;;;;;;;1.52;0.25;;;27.50;53.00;;;;;;5095452;28;20024;-80
2023/07/18 14:51:03;;;;;;;1.10;0.10;;;27.60;52.40;;;;;;5095684;28;20036;-79
2023/07/18 14:53:29;;;;;;;1.33;0.17;;;27.50;52.20;;;;;;5095329;28;20028;-79
2023/07/18 14:55:54;;;;;;;1.40;0.10;;;27.60;52.40;;;;;;5095592;28;20077;-80
2023/07/18 14:58:20;;;;;;;2.60;0.10;;;27.60;52.20;;;;;;5095534;28;20038;-80
2023/07/18 15:00:47;;;;;;;1.52;0.20;;;27.60;52.50;;;;;;5095268;28;20064;-80
2023/07/18 15:03:12;;;;;;;1.05;0.17;;;27.70;52.10;;;;;;5094858;28;20073;-79
2023/07/18 15:05:38;;;;;;;1.08;0.13;;;27.60;51.70;;;;;;5094281;28;20020;-79
2023/07/18 15:08:04;;;;;;;1.55;0.17;;;27.60;51.10;;;;;;5095028;28;20472;-80
2023/07/18 15:10:30;;;;;;;1.52;0.15;;;27.50;51.40;;;;;;5094464;28;20084;-80
2023/07/18 15:12:55;;;;;;;2.17;0.20;;;27.50;51.60;;;;;;5105054;28;20039;-80
2023/07/18 15:15:21;;;;;;;2.45;0.30;;;27.40;52.10;;;;;;5114309;28;20039;-80
2023/07/18 15:17:48;;;;;;;3.38;0.25;;;27.30;52.60;;;;;;5096241;28;20031;-80
2023/07/18 15:20:15;;;;;;;2.40;0.20;;;27.20;52.60;;;;;;5114652;28;20111;-80
2023/07/18 15:22:41;;;;;;;1.95;0.30;;;27.20;53.10;;;;;;5114749;28;20028;-80
2023/07/18 15:25:09;;;;;;;1.75;0.20;;;27.10;54.10;;;;;;5113529;28;20035;-80
2023/07/18 15:27:35;;;;;;;1.63;0.20;;;27.10;53.60;;;;;;5114968;28;20030;-81
2023/07/18 15:30:02;;;;;;;3.08;0.20;;;27.10;53.10;;;;;;5114319;28;20028;-78
2023/07/18 15:32:28;;;;;;;4.05;0.20;;;27.10;52.80;;;;;;5096383;28;20039;-79
2023/07/18 15:34:53;;;;;;;2.53;0.30;;;27.00;52.90;;;;;;5114546;28;20532;-79
2023/07/18 15:37:19;;;;;;;1.80;0.20;;;27.00;53.10;;;;;;5096106;28;20063;-79
2023/07/18 15:39:44;;;;;;;2.78;0.30;;;26.90;52.50;;;;;;5097870;28;20467;-79
2023/07/18 15:42:10;;;;;;;3.95;0.57;;;26.90;53.00;;;;;;5094042;28;20079;-79
2023/07/18 15:44:36;;;;;;;1.23;0.20;;;26.80;53.50;;;;;;5093149;28;20032;-79
2023/07/18 15:47:02;;;;;;;3.45;0.20;;;26.80;52.90;;;;;;5094082;28;20103;-79
2023/07/18 15:49:28;;;;;;;1.38;0.20;;;26.70;52.80;;;;;;5099743;28;20031;-76
2023/07/18 15:51:54;;;;;;;1.55;0.20;;;26.70;53.10;;;;;;5068169;28;20039;-77
2023/07/18 15:54:19;;;;;;;2.55;0.30;;;26.70;52.80;;;;;;5102258;28;20073;-78
2023/07/18 15:56:45;;;;;;;2.10;0.28;;;26.60;52.60;;;;;;5109130;28;20035;-79
2023/07/18 15:59:11;;;;;;;6.72;0.30;;;26.60;53.90;;;;;;5091788;28;20032;-78
2023/07/18 16:01:37;;;;;;;1.38;0.30;;;26.70;54.00;;;;;;5109757;28;20392;-78
2023/07/18 16:04:03;;;;;;;1.50;0.20;;;26.70;53.50;;;;;;5114352;28;20467;-78
2023/07/18 16:06:37;;;;;;;2.65;0.40;;;26.60;53.30;;;;;;5114040;28;20040;-79
2023/07/18 16:09:03;;;;;;;1.75;0.30;;;26.60;53.50;;;;;;5113804;28;20507;-79
2023/07/18 16:11:29;;;;;;;2.47;0.10;;;26.50;53.20;;;;;;5114376;28;20035;-79
2023/07/18 16:13:55;;;;;;;1.75;0.20;;;26.50;53.60;;;;;;5114233;28;20020;-80
2023/07/18 16:16:23;;;;;;;2.00;0.15;;;26.50;53.70;;;;;;5113301;28;20034;-78
2023/07/18 16:18:54;;;;;;;0.93;0.20;;;26.50;54.20;;;;;;5095223;28;20034;-79
2023/07/18 16:21:20;;;;;;;2.80;0.20;;;26.50;54.40;;;;;;5113898;28;20024;-79
2023/07/18 16:23:47;;;;;;;2.67;0.30;;;26.50;54.00;;;;;;5078823;28;20501;-79
2023/07/18 16:26:14;;;;;;;1.42;0.20;;;26.40;54.00;;;;;;5113833;28;20040;-79
2023/07/18 16:28:39;;;;;;;2.88;0.38;;;26.30;53.70;;;;;;5113488;28;20032;-79
2023/07/18 16:31:05;;;;;;;1.10;0.13;;;26.20;54.00;;;;;;5095333;28;20031;-78
2023/07/18 16:33:31;;;;;;;1.23;0.13;;;26.20;54.60;;;;;;5095975;28;20031;-77
2023/07/18 16:35:58;;;;;;;1.80;0.20;;;26.20;54.00;;;;;;5095510;28;20031;-78
2023/07/18 16:38:25;;;;;;;2.63;0.20;;;26.20;54.60;;;;;;5113303;28;20028;-78
2023/07/18 16:40:50;;;;;;;3.00;0.20;;;26.20;54.80;;;;;;5113435;28;20039;-79
2023/07/18 16:43:16;;;;;;;1.63;0.10;;;26.10;54.40;;;;;;5113743;28;20055;-79
2023/07/18 16:45:45;;;;;;;1.20;0.10;;;26.10;54.30;;;;;;5112807;28;20084;-78
2023/07/18 16:48:11;;;;;;;3.90;0.30;;;26.10;53.70;;;;;;5095520;28;20104;-79
2023/07/18 16:50:36;;;;;;;1.30;0.30;;;26.10;54.00;;;;;;5094792;28;20054;-79
2023/07/18 16:53:03;;;;;;;1.60;0.30;;;26.10;54.40;;;;;;5113614;28;20028;-79
2023/07/18 16:55:28;;;;;;;1.17;0.20;;;26.00;54.20;;;;;;5095185;28;20035;-79
2023/07/18 16:57:54;;;;;;;2.63;0.25;;;26.00;54.50;;;;;;5113646;28;20028;-79
2023/07/18 17:00:19;;;;;;;1.55;0.20;;;26.00;55.10;;;;;;5113061;28;20114;-79
2023/07/18 17:02:45;;;;;;;2.60;0.30;;;26.00;54.90;;;;;;5112712;28;20063;-79
2023/07/18 17:05:11;;;;;;;1.50;0.20;;;25.90;55.20;;;;;;5094859;28;20031;-80
2023/07/18 17:07:36;;;;;;;1.20;0.20;;;25.90;55.30;;;;;;5113669;28;20027;-80
2023/07/18 17:10:04;;;;;;;3.47;0.20;;;25.90;55.40;;;;;;5113010;28;20051;-79
2023/07/18 17:12:29;;;;;;;1.50;0.25;;;25.90;55.90;;;;;;5112946;28;20054;-79
2023/07/18 17:14:56;;;;;;;2.38;0.22;;;25.80;56.20;;;;;;5112371;28;20114;-79
2023/07/18 17:17:22;;;;;;;2.60;0.60;;;25.80;55.90;;;;;;5095116;28;20046;-79
2023/07/18 17:19:47;;;;;;;1.15;0.30;;;25.80;55.90;;;;;;5112948;28;20027;-79
2023/07/18 17:22:13;;;;;;;1.77;0.10;;;25.80;55.60;;;;;;5113047;28;20047;-79
2023/07/18 17:24:39;;;;;;;2.20;0.25;;;25.80;55.50;;;;;;5094755;28;20038;-79